createdAt,value
2019-03-22T00:02:09.699Z,17.73
2019-03-22T00:04:40.359Z,17.30
2019-03-22T00:07:12.287Z,16.57
2019-03-22T00:09:44.085Z,23.80
2019-03-22T00:12:14.907Z,20.70
2019-03-22T00:14:45.650Z,22.00
2019-03-22T00:17:16.384Z,23.13
2019-03-22T00:19:47.064Z,15.83
2019-03-22T00:22:17.739Z,15.47
2019-03-22T00:24:48.407Z,18.27
2019-03-22T00:27:19.056Z,21.05
2019-03-22T00:29:49.727Z,18.00
2019-03-22T00:32:20.431Z,16.47
2019-03-22T00:34:51.082Z,19.43
2019-03-22T00:37:21.920Z,25.92
2019-03-22T00:39:52.685Z,18.42
2019-03-22T00:42:23.451Z,25.67
2019-03-22T00:44:54.130Z,21.00
2019-03-22T00:47:24.802Z,23.23
2019-03-22T00:49:56.572Z,14.53
2019-03-22T00:52:27.242Z,19.43
2019-03-22T00:54:58.015Z,25.77
2019-03-22T00:57:29.001Z,15.50
2019-03-22T00:59:59.674Z,24.87
2019-03-22T01:02:30.580Z,17.37
2019-03-22T01:05:01.333Z,19.83
2019-03-22T01:07:32.033Z,14.87
2019-03-22T01:10:02.783Z,23.03
2019-03-22T01:12:33.500Z,18.37
2019-03-22T01:15:04.867Z,21.40
2019-03-22T01:17:35.632Z,16.57
2019-03-22T01:20:07.586Z,15.43
2019-03-22T01:22:38.384Z,20.93
2019-03-22T01:25:09.433Z,17.17
2019-03-22T01:27:41.318Z,17.33
2019-03-22T01:30:13.857Z,18.03
2019-03-22T01:32:46.854Z,18.93
2019-03-22T01:35:17.638Z,21.33
2019-03-22T01:37:48.488Z,17.13
2019-03-22T01:40:19.569Z,15.37
2019-03-22T01:42:50.331Z,19.50
2019-03-22T01:45:21.011Z,16.70
2019-03-22T01:47:51.749Z,22.20
2019-03-22T01:50:22.671Z,19.07
2019-03-22T01:52:53.326Z,18.80
2019-03-22T01:55:24.090Z,21.83
2019-03-22T01:57:54.951Z,16.70
2019-03-22T02:00:25.684Z,18.77
2019-03-22T02:02:56.434Z,19.10
2019-03-22T02:05:27.188Z,18.30
2019-03-22T02:07:57.877Z,16.90
2019-03-22T02:10:28.786Z,14.03
2019-03-22T02:12:59.505Z,15.07
2019-03-22T02:15:32.805Z,19.10
2019-03-22T02:18:03.744Z,27.50
2019-03-22T02:20:34.499Z,18.67
2019-03-22T02:23:05.410Z,18.97
2019-03-22T02:25:36.173Z,17.00
2019-03-22T02:28:07.027Z,13.30
2019-03-22T02:30:37.698Z,21.57
2019-03-22T02:33:08.372Z,16.33
2019-03-22T02:35:39.207Z,26.43
2019-03-22T02:38:09.901Z,18.13
2019-03-22T02:40:40.833Z,20.95
2019-03-22T02:43:12.219Z,23.00
2019-03-22T02:45:43.005Z,26.10
2019-03-22T02:48:13.661Z,16.60
2019-03-22T02:50:44.517Z,23.80
2019-03-22T02:53:15.172Z,16.73
2019-03-22T02:55:46.944Z,20.38
2019-03-22T02:58:20.889Z,19.80
2019-03-22T03:00:51.334Z,26.55
2019-03-22T03:03:22.064Z,15.50
2019-03-22T03:05:52.822Z,15.30
2019-03-22T03:08:23.657Z,21.77
2019-03-22T03:10:54.488Z,21.23
2019-03-22T03:13:25.140Z,31.63
2019-03-22T03:15:55.928Z,18.40
2019-03-22T03:18:26.570Z,19.20
2019-03-22T03:20:57.298Z,25.35
2019-03-22T03:23:28.055Z,20.60
2019-03-22T03:25:58.864Z,22.83
2019-03-22T03:28:36.646Z,18.00
2019-03-22T03:31:02.071Z,19.93
2019-03-22T03:33:32.817Z,17.43
2019-03-22T03:36:03.584Z,23.73
2019-03-22T03:38:34.265Z,16.80
2019-03-22T03:41:05.149Z,18.53
2019-03-22T03:43:35.913Z,16.53
2019-03-22T03:46:06.677Z,18.20
2019-03-22T03:48:37.431Z,15.77
2019-03-22T03:51:08.200Z,16.60
2019-03-22T03:53:38.943Z,22.03
2019-03-22T03:56:09.729Z,15.43
2019-03-22T03:58:51.581Z,17.10
2019-03-22T04:01:12.996Z,14.13
2019-03-22T04:03:43.743Z,22.80
2019-03-22T04:06:14.411Z,19.83
2019-03-22T04:08:45.080Z,16.97
2019-03-22T04:11:15.755Z,18.25
2019-03-22T04:13:46.396Z,19.77
2019-03-22T04:16:17.828Z,14.60
2019-03-22T04:18:48.482Z,26.50
2019-03-22T04:21:19.152Z,24.57
2019-03-22T04:23:51.345Z,15.72
2019-03-22T04:26:22.198Z,13.75
2019-03-22T04:29:06.808Z,14.48
2019-03-22T04:31:25.323Z,20.97
2019-03-22T04:33:55.995Z,18.50
2019-03-22T04:36:26.781Z,18.23
2019-03-22T04:38:57.452Z,20.33
2019-03-22T04:41:29.335Z,18.00
2019-03-22T04:44:00.074Z,19.20
2019-03-22T04:46:31.414Z,18.33
2019-03-22T04:49:03.393Z,18.63
2019-03-22T04:51:34.888Z,21.70
2019-03-22T04:54:07.687Z,16.90
2019-03-22T04:56:41.167Z,17.33
2019-03-22T04:59:19.220Z,29.60
2019-03-22T05:01:53.479Z,25.33
2019-03-22T05:04:26.337Z,34.23
2019-03-22T05:06:59.041Z,18.63
2019-03-22T05:09:33.125Z,15.37
2019-03-22T05:12:05.869Z,21.53
2019-03-22T05:14:41.149Z,25.73
2019-03-22T05:17:13.448Z,19.63
2019-03-22T05:19:50.895Z,18.90
2019-03-22T05:22:26.020Z,17.03
2019-03-22T05:24:59.403Z,26.50
2019-03-22T05:27:34.194Z,30.67
2019-03-22T05:30:08.049Z,24.00
2019-03-22T05:32:38.741Z,21.23
2019-03-22T05:35:11.018Z,16.85
2019-03-22T05:37:41.688Z,27.23
2019-03-22T05:40:12.505Z,26.23
2019-03-22T05:42:44.793Z,20.20
2019-03-22T05:45:15.609Z,20.83
2019-03-22T05:47:46.365Z,21.20
2019-03-22T05:50:17.023Z,28.30
2019-03-22T05:52:48.709Z,20.12
2019-03-22T05:55:19.384Z,20.83
2019-03-22T05:57:50.095Z,41.37
2019-03-22T06:00:22.305Z,23.80
2019-03-22T06:02:53.868Z,19.60
2019-03-22T06:05:24.556Z,34.50
2019-03-22T06:07:55.242Z,30.87
2019-03-22T06:10:25.887Z,23.77
2019-03-22T06:12:56.562Z,28.93
2019-03-22T06:15:27.277Z,26.00
2019-03-22T06:17:57.941Z,23.83
2019-03-22T06:20:28.707Z,42.50
2019-03-22T06:22:59.381Z,26.07
2019-03-22T06:25:30.065Z,27.10
2019-03-22T06:28:00.805Z,20.73
2019-03-22T06:30:31.476Z,21.20
2019-03-22T06:33:02.237Z,23.40
2019-03-22T06:35:32.909Z,20.00
2019-03-22T06:38:03.618Z,18.80
2019-03-22T06:40:34.333Z,22.80
2019-03-22T06:43:05.354Z,28.53
2019-03-22T06:45:36.015Z,22.43
2019-03-22T06:48:07.180Z,27.90
2019-03-22T06:50:37.880Z,32.50
2019-03-22T06:53:08.708Z,25.43
2019-03-22T06:55:39.478Z,32.93
2019-03-22T06:58:10.240Z,25.37
2019-03-22T07:00:42.360Z,30.10
2019-03-22T07:03:13.033Z,29.23
2019-03-22T07:05:43.876Z,29.87
2019-03-22T07:08:14.596Z,39.33
2019-03-22T07:10:45.314Z,44.13
2019-03-22T07:13:16.086Z,25.50
2019-03-22T07:15:46.756Z,39.33
2019-03-22T07:18:17.453Z,35.40
2019-03-22T07:20:48.134Z,32.40
2019-03-22T07:23:19.794Z,29.02
2019-03-22T07:25:51.577Z,42.07
2019-03-22T07:28:22.353Z,34.50
2019-03-22T07:30:53.066Z,34.90
2019-03-22T07:33:23.863Z,30.03
2019-03-22T07:35:54.783Z,39.00
2019-03-22T07:38:25.696Z,24.63
2019-03-22T07:40:56.481Z,26.20
2019-03-22T07:43:27.947Z,28.20
2019-03-22T07:45:58.745Z,36.83
2019-03-22T07:48:29.517Z,24.33
2019-03-22T07:51:00.227Z,25.80
2019-03-22T07:53:31.012Z,31.42
2019-03-22T07:56:01.880Z,35.77
2019-03-22T07:58:32.561Z,22.43
2019-03-22T08:01:04.134Z,28.47
2019-03-22T08:03:34.770Z,25.40
2019-03-22T08:06:05.956Z,19.57
2019-03-22T08:08:37.873Z,25.50
2019-03-22T08:11:08.698Z,21.50
2019-03-22T08:13:39.407Z,21.77
2019-03-22T08:16:10.300Z,28.47
2019-03-22T08:18:42.301Z,18.20
2019-03-22T08:21:13.167Z,22.10
2019-03-22T08:23:43.853Z,18.50
2019-03-22T08:26:14.644Z,19.50
2019-03-22T08:28:45.376Z,22.80
2019-03-22T08:31:16.322Z,18.87
2019-03-22T08:33:47.770Z,28.43
2019-03-22T08:36:18.753Z,25.35
2019-03-22T08:38:49.451Z,21.63
2019-03-22T08:41:20.273Z,23.17
2019-03-22T08:43:51.124Z,25.87
2019-03-22T08:46:21.813Z,17.33
2019-03-22T08:48:52.544Z,18.90
2019-03-22T08:51:23.335Z,19.13
2019-03-22T08:53:55.518Z,17.60
2019-03-22T08:56:26.636Z,19.32
2019-03-22T08:58:57.463Z,27.53
2019-03-22T09:01:28.366Z,13.50
2019-03-22T09:03:59.190Z,24.18
2019-03-22T09:06:30.029Z,14.23
2019-03-22T09:09:00.852Z,20.60
2019-03-22T09:11:31.757Z,15.67
2019-03-22T09:14:02.450Z,19.27
2019-03-22T09:16:33.522Z,14.10
2019-03-22T09:19:04.358Z,25.87
2019-03-22T09:21:35.047Z,16.27
2019-03-22T09:24:06.122Z,14.30
2019-03-22T09:26:47.107Z,19.80
2019-03-22T09:29:09.441Z,21.60
2019-03-22T09:31:40.320Z,17.23
2019-03-22T09:34:11.256Z,26.00
2019-03-22T09:36:42.015Z,33.33
2019-03-22T09:39:14.030Z,22.17
2019-03-22T09:41:44.815Z,24.25
2019-03-22T09:44:15.704Z,16.50
2019-03-22T09:46:46.375Z,16.13
2019-03-22T09:49:17.265Z,16.17
2019-03-22T09:51:48.039Z,17.40
2019-03-22T09:54:18.873Z,19.70
2019-03-22T09:56:49.747Z,17.80
2019-03-22T09:59:21.024Z,16.48
2019-03-22T10:01:51.758Z,18.33
2019-03-22T10:04:22.445Z,18.43
2019-03-22T10:06:53.149Z,17.57
2019-03-22T10:09:24.037Z,25.63
2019-03-22T10:11:54.870Z,22.33
2019-03-22T10:14:25.578Z,22.87
2019-03-22T10:16:56.564Z,18.55
2019-03-22T10:19:27.303Z,22.40
2019-03-22T10:21:58.037Z,30.80
2019-03-22T10:24:29.955Z,21.90
2019-03-22T10:27:00.695Z,24.82
2019-03-22T10:29:31.689Z,22.27
2019-03-22T10:32:02.557Z,19.70
2019-03-22T10:34:33.468Z,22.73
2019-03-22T10:37:04.262Z,22.37
2019-03-22T10:39:35.034Z,22.47
2019-03-22T10:42:06.853Z,26.60
2019-03-22T10:44:39.371Z,20.60
2019-03-22T10:47:10.085Z,18.50
2019-03-22T10:49:42.058Z,21.07
2019-03-22T10:52:13.836Z,19.70
2019-03-22T10:54:44.642Z,23.97
2019-03-22T10:57:15.467Z,18.17
2019-03-22T10:59:46.313Z,23.37
2019-03-22T11:02:17.162Z,24.50
2019-03-22T11:04:48.005Z,18.57
2019-03-22T11:07:18.871Z,22.62
2019-03-22T11:09:49.708Z,20.68
2019-03-22T11:12:20.880Z,21.80
2019-03-22T11:14:51.704Z,26.87
2019-03-22T11:17:22.728Z,21.93
2019-03-22T11:19:53.449Z,24.90
2019-03-22T11:22:24.300Z,22.27
2019-03-22T11:24:55.095Z,19.63
2019-03-22T11:27:25.857Z,27.13
2019-03-22T11:29:56.646Z,23.13
2019-03-22T11:32:27.593Z,20.07
2019-03-22T11:34:58.393Z,22.63
2019-03-22T11:37:29.339Z,20.60
2019-03-22T11:40:02.440Z,27.03
2019-03-22T11:42:33.419Z,26.50
2019-03-22T11:45:05.184Z,22.80
2019-03-22T11:47:35.974Z,22.35
2019-03-22T11:50:09.222Z,20.23
2019-03-22T11:52:40.461Z,20.50
2019-03-22T11:55:12.210Z,21.57
2019-03-22T11:57:43.262Z,24.53
2019-03-22T12:00:20.580Z,21.07
2019-03-22T12:02:51.382Z,22.77
2019-03-22T12:05:23.109Z,28.57
2019-03-22T12:07:54.183Z,20.43
2019-03-22T12:10:25.294Z,21.83
2019-03-22T12:12:56.004Z,22.90
2019-03-22T12:15:26.934Z,16.93
2019-03-22T12:17:57.704Z,16.63
2019-03-22T12:20:28.652Z,21.73
2019-03-22T12:22:59.404Z,22.23
2019-03-22T12:25:30.665Z,22.13
2019-03-22T12:28:01.473Z,24.53
2019-03-22T12:30:32.410Z,18.73
2019-03-22T12:33:03.276Z,18.40
2019-03-22T12:35:34.090Z,17.02
2019-03-22T12:38:04.948Z,20.57
2019-03-22T12:40:35.882Z,15.70
2019-03-22T12:43:06.803Z,16.63
2019-03-22T12:45:37.737Z,22.07
2019-03-22T12:48:08.511Z,31.00
2019-03-22T12:50:39.729Z,23.97
2019-03-22T12:53:10.580Z,20.62
2019-03-22T12:55:41.335Z,16.77
2019-03-22T12:58:12.131Z,24.23
2019-03-22T13:00:43.212Z,21.83
2019-03-22T13:03:14.130Z,18.47
2019-03-22T13:05:44.942Z,24.00
2019-03-22T13:08:17.822Z,19.17
2019-03-22T13:10:48.749Z,17.90
2019-03-22T13:13:19.559Z,17.60
2019-03-22T13:15:50.327Z,20.03
2019-03-22T13:18:21.122Z,18.60
2019-03-22T13:20:51.962Z,20.80
2019-03-22T13:23:22.787Z,20.10
2019-03-22T13:25:53.574Z,19.63
2019-03-22T13:28:24.253Z,25.23
2019-03-22T13:30:55.059Z,19.48
2019-03-22T13:33:26.363Z,17.27
2019-03-22T13:35:57.148Z,18.80
2019-03-22T13:38:28.000Z,16.33
2019-03-22T13:40:58.678Z,16.03
2019-03-22T13:43:29.396Z,16.30
2019-03-22T13:46:00.411Z,12.37
2019-03-22T13:48:31.147Z,17.62
2019-03-22T13:51:03.392Z,24.97
2019-03-22T13:53:34.108Z,20.43
2019-03-22T13:56:05.161Z,19.27
2019-03-22T13:58:35.946Z,17.03
2019-03-22T14:01:06.947Z,16.97
2019-03-22T14:03:37.748Z,18.60
2019-03-22T14:06:08.550Z,20.87
2019-03-22T14:08:39.341Z,23.47
2019-03-22T14:11:10.123Z,21.93
2019-03-22T14:13:40.818Z,17.83
2019-03-22T14:16:14.011Z,12.40
2019-03-22T14:18:44.780Z,15.33
2019-03-22T14:21:15.574Z,16.30
2019-03-22T14:23:47.531Z,16.33
2019-03-22T14:26:18.398Z,18.00
2019-03-22T14:28:49.221Z,13.00
2019-03-22T14:31:20.185Z,14.83
2019-03-22T14:33:52.430Z,12.87
2019-03-22T14:36:23.240Z,17.27
2019-03-22T14:38:53.944Z,24.40
2019-03-22T14:41:24.963Z,14.70
2019-03-22T14:43:55.699Z,10.70
2019-03-22T14:46:26.619Z,15.90
2019-03-22T14:48:57.569Z,13.27
2019-03-22T14:51:28.504Z,16.43
2019-03-22T14:53:59.503Z,24.97
2019-03-22T14:56:30.307Z,13.40
2019-03-22T14:59:02.231Z,15.77
2019-03-22T15:01:33.119Z,19.83
2019-03-22T15:04:03.981Z,18.63
2019-03-22T15:06:34.782Z,14.57
2019-03-22T15:09:07.782Z,15.57
2019-03-22T15:11:38.739Z,20.43
2019-03-22T15:14:19.555Z,19.57
2019-03-22T15:17:10.055Z,23.47
2019-03-22T15:19:51.411Z,17.57
2019-03-22T15:22:36.206Z,21.65
2019-03-22T15:25:25.456Z,14.50
2019-03-22T15:28:18.074Z,20.00
2019-03-22T15:31:10.970Z,18.30
2019-03-22T15:34:12.389Z,27.23
2019-03-22T15:37:15.374Z,20.63
2019-03-22T15:40:00.455Z,22.73
2019-03-22T15:42:31.818Z,24.07
2019-03-22T15:45:02.804Z,22.97
2019-03-22T15:47:33.653Z,25.13
2019-03-22T15:50:05.264Z,24.30
2019-03-22T15:52:36.295Z,20.97
2019-03-22T15:55:08.561Z,17.60
2019-03-22T15:57:39.357Z,26.25
2019-03-22T16:00:14.737Z,25.10
2019-03-22T16:02:45.742Z,20.90
2019-03-22T16:05:17.345Z,26.33
2019-03-22T16:07:48.749Z,18.57
2019-03-22T16:10:20.770Z,22.30
2019-03-22T16:12:51.674Z,20.67
2019-03-22T16:15:22.630Z,28.73
2019-03-22T16:17:53.402Z,23.27
2019-03-22T16:20:24.340Z,21.67
2019-03-22T16:22:55.135Z,16.83
2019-03-22T16:25:25.809Z,19.40
2019-03-22T16:27:56.757Z,18.30
2019-03-22T16:30:27.639Z,16.47
2019-03-22T16:32:58.489Z,15.80
2019-03-22T16:35:30.398Z,19.60
2019-03-22T16:38:01.200Z,21.70
2019-03-22T16:40:31.893Z,19.30
2019-03-22T16:43:02.671Z,27.97
2019-03-22T16:45:51.454Z,21.57
2019-03-22T16:48:22.330Z,20.30
2019-03-22T16:50:53.092Z,29.70
2019-03-22T16:53:23.844Z,29.20
2019-03-22T16:55:54.825Z,25.20
2019-03-22T16:58:25.867Z,33.13
2019-03-22T17:00:56.893Z,39.53
2019-03-22T17:03:27.961Z,27.40
2019-03-22T17:05:58.851Z,29.73
2019-03-22T17:08:29.651Z,25.83
2019-03-22T17:11:01.426Z,24.33
2019-03-22T17:13:32.403Z,22.10
2019-03-22T17:16:03.470Z,26.50
2019-03-22T17:18:34.600Z,33.92
2019-03-22T17:21:05.534Z,42.93
2019-03-22T17:23:36.298Z,29.12
2019-03-22T17:26:07.205Z,25.57
2019-03-22T17:28:37.903Z,23.00
2019-03-22T17:31:08.765Z,26.33
2019-03-22T17:33:39.626Z,41.23
2019-03-22T17:36:11.015Z,33.23
2019-03-22T17:38:41.882Z,28.23
2019-03-22T17:41:12.760Z,24.73
2019-03-22T17:43:43.488Z,27.93
2019-03-22T17:46:14.265Z,26.87
2019-03-22T17:48:45.044Z,27.93
2019-03-22T17:51:15.919Z,35.57
2019-03-22T17:53:46.881Z,36.97
2019-03-22T17:56:17.586Z,28.40
2019-03-22T17:58:48.474Z,30.73
2019-03-22T18:01:19.774Z,33.67
2019-03-22T18:03:50.475Z,33.27
2019-03-22T18:06:21.417Z,34.93
2019-03-22T18:08:52.205Z,32.57
2019-03-22T18:11:23.029Z,32.27
2019-03-22T18:13:53.774Z,34.73
2019-03-22T18:16:24.506Z,44.63
2019-03-22T18:18:56.372Z,29.20
2019-03-22T18:21:27.322Z,38.60
2019-03-22T18:23:58.019Z,31.50
2019-03-22T18:26:28.921Z,38.47
2019-03-22T18:28:59.601Z,38.17
2019-03-22T18:31:30.397Z,39.70
2019-03-22T18:34:01.186Z,38.77
2019-03-22T18:36:31.917Z,31.57
2019-03-22T18:39:02.697Z,39.63
2019-03-22T18:41:33.414Z,37.37
2019-03-22T18:44:04.206Z,40.40
2019-03-22T18:46:35.004Z,47.20
2019-03-22T18:49:05.687Z,30.80
2019-03-22T18:51:36.486Z,37.23
2019-03-22T18:54:07.365Z,41.53
2019-03-22T18:56:38.154Z,42.43
2019-03-22T18:59:08.928Z,42.90
2019-03-22T19:01:39.701Z,37.90
2019-03-22T19:04:10.503Z,64.93
2019-03-22T19:06:41.259Z,51.83
2019-03-22T19:09:12.198Z,43.07
2019-03-22T19:11:43.218Z,49.90
2019-03-22T19:14:13.904Z,32.13
2019-03-22T19:16:44.765Z,40.70
2019-03-22T19:19:15.592Z,41.60
2019-03-22T19:21:46.311Z,52.00
2019-03-22T19:24:17.077Z,50.80
2019-03-22T19:26:48.952Z,46.30
2019-03-22T19:29:20.797Z,37.30
2019-03-22T19:31:51.617Z,39.67
2019-03-22T19:34:22.387Z,31.13
2019-03-22T19:36:53.324Z,40.97
2019-03-22T19:39:24.256Z,33.17
2019-03-22T19:41:55.112Z,46.65
2019-03-22T19:44:25.918Z,40.73
2019-03-22T19:46:56.669Z,37.60
2019-03-22T19:49:27.349Z,41.97
2019-03-22T19:51:58.164Z,35.73
2019-03-22T19:54:28.968Z,33.43
2019-03-22T19:56:59.823Z,30.80
2019-03-22T19:59:31.031Z,33.20
2019-03-22T20:02:04.651Z,44.90
2019-03-22T20:04:36.538Z,36.63
2019-03-22T20:07:09.135Z,41.17
2019-03-22T20:09:40.174Z,32.93
2019-03-22T20:12:11.127Z,43.40
2019-03-22T20:14:41.920Z,44.30
2019-03-22T20:17:31.662Z,40.17
2019-03-22T20:20:04.456Z,41.23
2019-03-22T20:22:35.380Z,38.73
2019-03-22T20:25:07.324Z,31.37
2019-03-22T20:27:38.287Z,36.87
2019-03-22T20:30:09.581Z,38.07
2019-03-22T20:32:40.479Z,37.53
2019-03-22T20:35:16.289Z,39.13
2019-03-22T20:37:44.233Z,35.57
2019-03-22T20:40:15.862Z,31.23
2019-03-22T20:42:46.968Z,43.60
2019-03-22T20:45:23.917Z,32.30
2019-03-22T20:47:51.404Z,34.87
2019-03-22T20:50:22.109Z,36.03
2019-03-22T20:52:52.959Z,32.10
2019-03-22T20:55:23.711Z,41.00
2019-03-22T20:57:54.640Z,39.20
2019-03-22T21:00:27.357Z,34.53
2019-03-22T21:02:59.188Z,35.67
2019-03-22T21:05:30.095Z,50.03
2019-03-22T21:08:00.996Z,32.80
2019-03-22T21:10:31.804Z,36.80
2019-03-22T21:13:02.700Z,40.63
2019-03-22T21:15:33.387Z,30.87
2019-03-22T21:18:04.304Z,30.27
2019-03-22T21:20:35.113Z,37.20
2019-03-22T21:23:05.958Z,36.00
2019-03-22T21:25:36.820Z,31.37
2019-03-22T21:28:07.690Z,43.00
2019-03-22T21:30:38.546Z,31.00
2019-03-22T21:33:09.337Z,37.50
2019-03-22T21:35:40.112Z,39.60
2019-03-22T21:38:11.420Z,32.67
2019-03-22T21:40:42.328Z,37.28
2019-03-22T21:43:13.101Z,34.00
2019-03-22T21:45:43.871Z,35.03
2019-03-22T21:48:14.614Z,33.60
2019-03-22T21:50:45.303Z,32.80
2019-03-22T21:53:16.032Z,30.87
2019-03-22T21:55:46.864Z,30.47
2019-03-22T21:58:17.647Z,28.43
2019-03-22T22:00:48.513Z,34.63
2019-03-22T22:03:19.204Z,27.83
2019-03-22T22:05:50.057Z,32.60
2019-03-22T22:08:20.914Z,33.37
2019-03-22T22:10:59.574Z,29.14
2019-03-22T22:13:25.271Z,31.40
2019-03-22T22:15:56.066Z,29.30
2019-03-22T22:18:26.863Z,33.75
2019-03-22T22:20:58.758Z,31.65
2019-03-22T22:23:29.550Z,30.30
2019-03-22T22:26:00.353Z,29.47
2019-03-22T22:28:31.040Z,31.90
2019-03-22T22:31:01.742Z,39.80
2019-03-22T22:33:32.541Z,30.00
2019-03-22T22:36:03.421Z,34.17
2019-03-22T22:38:35.423Z,26.83
2019-03-22T22:41:06.360Z,33.67
2019-03-22T22:43:37.064Z,41.28
2019-03-22T22:46:08.095Z,29.83
2019-03-22T22:48:38.899Z,32.13
2019-03-22T22:51:09.672Z,30.33
2019-03-22T22:53:40.525Z,30.60
2019-03-22T22:56:11.626Z,34.00
2019-03-22T22:58:42.424Z,39.90
2019-03-22T23:01:13.257Z,38.83
2019-03-22T23:03:44.993Z,26.93
2019-03-22T23:06:15.972Z,32.90
2019-03-22T23:08:46.921Z,34.40
2019-03-22T23:11:17.709Z,28.77
2019-03-22T23:13:48.412Z,34.03
2019-03-22T23:16:19.288Z,32.63
2019-03-22T23:18:50.058Z,32.87
2019-03-22T23:21:20.942Z,31.33
2019-03-22T23:23:51.643Z,25.87
2019-03-22T23:26:22.508Z,33.10
2019-03-22T23:28:54.388Z,32.63
2019-03-22T23:31:25.112Z,33.33
2019-03-22T23:33:55.830Z,31.80
2019-03-22T23:36:26.557Z,27.53
2019-03-22T23:38:57.348Z,25.83
2019-03-22T23:41:28.057Z,26.30
2019-03-22T23:43:58.788Z,26.42
2019-03-22T23:46:29.482Z,23.84
2019-03-22T23:49:00.434Z,26.57
2019-03-22T23:51:31.225Z,26.87
2019-03-22T23:54:02.006Z,30.93
2019-03-22T23:56:32.876Z,29.13
2019-03-22T23:59:03.815Z,28.98
